Terminal Aerodrome Forecast
Issued by NWS Wilmington, OH

Current Version | Previous Version | Graphics & Text | Print | Product List | Glossary On
Versions: 1 2 3 4 5 6 7 8 9 10 11 12 13 14 15 16 17 18 19 20 21 22 23
000
FTUS41 KILN 151100
TAFILN
TAF
KILN 151121Z 1512/1612 00000KT P6SM SKC
     FM151400 20006KT P6SM SCT150 BKN250
     FM152200 22008KT P6SM BKN045 OVC080
      TEMPO 1601/1604 -SHRA BKN040
     FM160400 35007KT P6SM SCT012 BKN030
     FM160800 35006KT 5SM BR SCT010 OVC025
      TEMPO 1610/1612 2SM BR BKN008=

USA.gov is the U.S. government's official web portal to all federal, state and local government web resources and services.